createdAt,value
2019-01-02T00:00:13.997Z,101414.35
2019-01-02T00:02:42.616Z,101413.29
2019-01-02T00:05:10.983Z,101408.45
2019-01-02T00:07:39.295Z,101411.34
2019-01-02T00:10:07.720Z,101417.60
2019-01-02T00:12:36.092Z,101413.27
2019-01-02T00:15:05.993Z,101432.22
2019-01-02T00:17:34.314Z,101430.37
2019-01-02T00:20:05.379Z,101428.34
2019-01-02T00:22:33.729Z,101428.79
2019-01-02T00:25:02.377Z,101436.86
2019-01-02T00:27:30.698Z,101433.55
2019-01-02T00:29:59.045Z,101437.05
2019-01-02T00:32:27.390Z,101446.31
2019-01-02T00:34:55.717Z,101441.00
2019-01-02T00:37:24.029Z,101448.00
2019-01-02T00:39:52.395Z,101449.63
2019-01-02T00:42:20.800Z,101433.49
2019-01-02T00:44:49.152Z,101438.48
2019-01-02T00:47:17.568Z,101439.45
2019-01-02T00:49:45.884Z,101444.15
2019-01-02T00:52:14.876Z,101442.95
2019-01-02T00:54:43.200Z,101438.70
2019-01-02T00:57:12.190Z,101428.66
2019-01-02T00:59:40.585Z,101433.27
2019-01-02T01:02:09.237Z,101431.45
2019-01-02T01:04:37.925Z,101431.77
2019-01-02T01:07:06.334Z,101447.50
2019-01-02T01:09:34.657Z,101440.95
2019-01-02T01:12:03.122Z,101457.34
2019-01-02T01:14:31.450Z,101470.16
2019-01-02T01:16:59.814Z,101480.53
2019-01-02T01:19:28.297Z,101492.39
2019-01-02T01:21:56.656Z,101492.42
2019-01-02T01:24:25.054Z,101494.03
2019-01-02T01:26:53.685Z,101500.58
2019-01-02T01:29:22.000Z,101500.45
2019-01-02T01:31:50.573Z,101512.27
2019-01-02T01:34:18.906Z,101505.51
2019-01-02T01:36:47.241Z,101503.34
2019-01-02T01:39:16.072Z,101501.91
2019-01-02T01:41:44.384Z,101502.27
2019-01-02T01:44:13.205Z,101511.42
2019-01-02T01:46:41.524Z,101505.39
2019-01-02T01:49:09.869Z,101504.55
2019-01-02T01:51:38.588Z,101502.25
2019-01-02T01:54:06.935Z,101505.39
2019-01-02T01:56:35.281Z,101499.84
2019-01-02T01:59:03.808Z,101498.88
2019-01-02T02:01:32.209Z,101494.53
2019-01-02T02:04:01.018Z,101494.66
2019-01-02T02:06:29.354Z,101492.84
2019-01-02T02:08:57.809Z,101484.05
2019-01-02T02:11:26.492Z,101485.11
2019-01-02T02:13:54.838Z,101486.22
2019-01-02T02:16:23.563Z,101485.25
2019-01-02T02:18:51.893Z,101488.27
2019-01-02T02:21:20.245Z,101489.59
2019-01-02T02:23:48.863Z,101489.59
2019-01-02T02:26:17.289Z,101490.31
2019-01-02T02:28:46.107Z,101487.91
2019-01-02T02:31:14.828Z,101491.75
2019-01-02T02:33:43.588Z,101481.50
2019-01-02T02:36:12.694Z,101500.56
2019-01-02T02:38:41.325Z,101505.05
2019-01-02T02:41:10.081Z,101511.66
2019-01-02T02:43:38.857Z,101509.39
2019-01-02T02:46:07.185Z,101520.39
2019-01-02T02:48:35.996Z,101504.67
2019-01-02T02:51:04.640Z,101495.27
2019-01-02T02:53:33.414Z,101484.98
2019-01-02T02:56:02.108Z,101488.97
2019-01-02T02:58:30.865Z,101495.52
2019-01-02T03:00:59.483Z,101500.56
2019-01-02T03:03:28.323Z,101503.22
2019-01-02T03:05:57.151Z,101501.75
2019-01-02T03:08:25.505Z,101514.67
2019-01-02T03:10:54.225Z,101511.20
2019-01-02T03:13:22.943Z,101519.52
2019-01-02T03:15:51.714Z,101515.92
2019-01-02T03:18:20.433Z,101517.72
2019-01-02T03:20:48.837Z,101505.88
2019-01-02T03:23:17.276Z,101507.81
2019-01-02T03:25:46.042Z,101508.67
2019-01-02T03:28:14.924Z,101505.78
2019-01-02T03:30:43.685Z,101511.55
2019-01-02T03:33:12.609Z,101508.05
2019-01-02T03:35:40.929Z,101508.53
2019-01-02T03:38:09.267Z,101514.09
2019-01-02T03:40:37.601Z,101516.03
2019-01-02T03:43:05.935Z,101520.27
2019-01-02T03:45:34.382Z,101515.91
2019-01-02T03:48:02.837Z,101514.58
2019-01-02T03:50:31.207Z,101522.80
2019-01-02T03:52:59.542Z,101527.27
2019-01-02T03:55:27.932Z,101522.55
2019-01-02T03:57:56.276Z,101505.88
2019-01-02T04:00:24.618Z,101510.58
2019-01-02T04:02:52.988Z,101506.84
2019-01-02T04:05:22.898Z,101509.83
2019-01-02T04:07:57.047Z,101495.95
2019-01-02T04:10:25.398Z,101503.69
2019-01-02T04:12:53.792Z,101513.70
2019-01-02T04:15:22.133Z,101511.63
2019-01-02T04:17:50.470Z,101510.05
2019-01-02T04:20:19.411Z,101515.51
2019-01-02T04:22:47.739Z,101508.27
2019-01-02T04:25:17.050Z,101512.23
2019-01-02T04:27:45.350Z,101517.41
2019-01-02T04:30:14.859Z,101525.97
2019-01-02T04:32:43.165Z,101524.41
2019-01-02T04:35:11.526Z,101516.23
2019-01-02T04:37:39.918Z,101516.73
2019-01-02T04:40:10.703Z,101509.14
2019-01-02T04:42:39.107Z,101512.03
2019-01-02T04:45:09.568Z,101504.55
2019-01-02T04:47:37.905Z,101498.74
2019-01-02T04:50:10.285Z,101492.12
2019-01-02T04:52:38.689Z,101491.37
2019-01-02T04:55:07.143Z,101493.33
2019-01-02T04:57:35.558Z,101498.27
2019-01-02T05:00:06.680Z,101508.99
2019-01-02T05:02:35.053Z,101512.59
2019-01-02T05:05:03.801Z,101513.06
2019-01-02T05:07:32.137Z,101523.08
2019-01-02T05:10:00.454Z,101512.61
2019-01-02T05:12:28.799Z,101507.40
2019-01-02T05:14:57.141Z,101510.17
2019-01-02T05:17:25.494Z,101526.22
2019-01-02T05:19:53.834Z,101516.83
2019-01-02T05:22:22.246Z,101531.42
2019-01-02T05:24:50.577Z,101525.54
2019-01-02T05:27:18.918Z,101520.23
2019-01-02T05:29:47.230Z,101522.77
2019-01-02T05:32:15.744Z,101531.11
2019-01-02T05:34:44.059Z,101527.47
2019-01-02T05:37:12.412Z,101527.36
2019-01-02T05:39:40.750Z,101549.58
2019-01-02T05:42:09.121Z,101548.73
2019-01-02T05:44:37.430Z,101552.71
2019-01-02T05:47:05.768Z,101553.43
2019-01-02T05:49:34.225Z,101551.86
2019-01-02T05:52:02.669Z,101558.74
2019-01-02T05:54:31.014Z,101554.16
2019-01-02T05:56:59.363Z,101556.81
2019-01-02T05:59:27.698Z,101553.09
2019-01-02T06:01:56.160Z,101541.26
2019-01-02T06:04:24.713Z,101558.28
2019-01-02T06:06:53.096Z,101558.64
2019-01-02T06:09:21.511Z,101555.48
2019-01-02T06:11:50.282Z,101554.88
2019-01-02T06:14:18.618Z,101559.46
2019-01-02T06:16:48.485Z,101555.00
2019-01-02T06:19:16.930Z,101562.48
2019-01-02T06:21:45.294Z,101555.95
2019-01-02T06:24:13.844Z,101568.63
2019-01-02T06:26:42.189Z,101567.54
2019-01-02T06:29:10.532Z,101578.00
2019-01-02T06:31:38.898Z,101584.52
2019-01-02T06:34:07.287Z,101577.31
2019-01-02T06:36:35.617Z,101584.64
2019-01-02T06:39:06.388Z,101582.20
2019-01-02T06:41:34.691Z,101588.38
2019-01-02T06:44:03.053Z,101584.16
2019-01-02T06:46:31.365Z,101592.52
2019-01-02T06:48:59.726Z,101593.63
2019-01-02T06:51:28.026Z,101596.41
2019-01-02T06:53:56.372Z,101597.48
2019-01-02T06:56:24.678Z,101603.06
2019-01-02T06:58:53.013Z,101600.80
2019-01-02T07:01:21.328Z,101598.50
2019-01-02T07:03:49.673Z,101609.74
2019-01-02T07:06:18.145Z,101611.20
2019-01-02T07:08:46.580Z,101606.25
2019-01-02T07:11:14.979Z,101617.37
2019-01-02T07:13:43.322Z,101618.42
2019-01-02T07:16:11.661Z,101618.20
2019-01-02T07:18:40.208Z,101622.44
2019-01-02T07:21:09.032Z,101625.83
2019-01-02T07:23:37.433Z,101637.66
2019-01-02T07:26:05.838Z,101652.88
2019-01-02T07:28:34.167Z,101646.61
2019-01-02T07:31:02.695Z,101663.40
2019-01-02T07:33:35.631Z,101668.20
2019-01-02T07:36:06.676Z,101685.09
2019-01-02T07:38:40.542Z,101692.64
2019-01-02T07:41:16.179Z,101690.91
2019-01-02T07:43:51.856Z,101680.19
2019-01-02T07:46:26.457Z,101679.30
2019-01-02T07:49:00.208Z,101676.88
2019-01-02T07:51:35.847Z,101694.45
2019-01-02T07:54:11.576Z,101687.25
2019-01-02T07:56:45.317Z,101682.69
2019-01-02T07:59:17.070Z,101691.66
2019-01-02T08:01:52.745Z,101702.19
2019-01-02T08:04:24.570Z,101695.08
2019-01-02T08:07:00.195Z,101699.45
2019-01-02T08:09:32.785Z,101698.00
2019-01-02T08:12:07.609Z,101702.19
2019-01-02T08:14:40.298Z,101699.85
2019-01-02T08:17:12.950Z,101700.41
2019-01-02T08:19:47.639Z,101701.20
2019-01-02T08:22:20.528Z,101706.22
2019-01-02T08:24:58.391Z,101705.98
2019-01-02T08:27:33.102Z,101694.76
2019-01-02T08:30:05.848Z,101689.64
2019-01-02T08:32:38.677Z,101687.68
2019-01-02T08:35:12.582Z,101687.55
2019-01-02T08:37:47.318Z,101682.20
2019-01-02T08:40:21.840Z,101681.61
2019-01-02T08:42:52.517Z,101675.73
2019-01-02T08:45:26.130Z,101684.94
2019-01-02T08:47:58.810Z,101685.84
2019-01-02T08:50:33.520Z,101685.19
2019-01-02T08:53:06.440Z,101685.82
2019-01-02T08:55:40.204Z,101691.59
2019-01-02T08:58:11.811Z,101695.27
2019-01-02T09:00:43.225Z,101707.70
2019-01-02T09:03:19.933Z,101703.48
2019-01-02T09:05:53.751Z,101701.14
2019-01-02T09:08:25.911Z,101707.55
2019-01-02T09:10:58.553Z,101713.14
2019-01-02T09:13:31.366Z,101708.58
2019-01-02T09:16:05.005Z,101707.42
2019-01-02T09:18:36.872Z,101714.34
2019-01-02T09:21:10.705Z,101713.00
2019-01-02T09:23:42.434Z,101699.04
2019-01-02T09:26:16.119Z,101699.80
2019-01-02T09:28:49.958Z,101702.97
2019-01-02T09:31:21.730Z,101698.16
2019-01-02T09:33:54.631Z,101694.32
2019-01-02T09:36:30.364Z,101683.70
2019-01-02T09:39:02.636Z,101692.65
2019-01-02T09:41:38.328Z,101701.59
2019-01-02T09:44:12.233Z,101721.69
2019-01-02T09:46:45.114Z,101710.19
2019-01-02T09:49:18.783Z,101722.05
2019-01-02T09:51:54.588Z,101737.39
2019-01-02T09:54:29.402Z,101737.15
2019-01-02T09:57:05.119Z,101739.95
2019-01-02T09:59:37.985Z,101746.70
2019-01-02T10:02:10.912Z,101740.67
2019-01-02T10:04:44.421Z,101737.77
2019-01-02T10:07:16.251Z,101740.30
2019-01-02T10:09:49.916Z,101737.15
2019-01-02T10:12:21.952Z,101736.91
2019-01-02T10:14:54.218Z,101757.59
2019-01-02T10:17:26.976Z,101757.23
2019-01-02T10:20:00.847Z,101757.58
2019-01-02T10:22:34.513Z,101763.95
2019-01-02T10:25:08.996Z,101765.77
2019-01-02T10:27:44.669Z,101771.92
2019-01-02T10:30:20.426Z,101770.14
2019-01-02T10:32:53.091Z,101772.55
2019-01-02T10:35:27.126Z,101774.37
2019-01-02T10:38:03.778Z,101777.17
2019-01-02T10:40:38.595Z,101763.14
2019-01-02T10:43:12.329Z,101771.00
2019-01-02T10:45:48.031Z,101767.64
2019-01-02T10:48:22.651Z,101774.52
2019-01-02T10:50:56.757Z,101777.80
2019-01-02T10:53:30.246Z,101771.59
2019-01-02T10:56:03.182Z,101769.88
2019-01-02T10:58:37.256Z,101774.80
2019-01-02T11:01:13.232Z,101768.67
2019-01-02T11:03:49.546Z,101760.95
2019-01-02T11:06:23.070Z,101760.36
2019-01-02T11:08:57.721Z,101774.52
2019-01-02T11:11:30.763Z,101765.45
2019-01-02T11:14:03.149Z,101766.52
2019-01-02T11:16:38.238Z,101764.23
2019-01-02T11:19:12.394Z,101757.34
2019-01-02T11:21:46.375Z,101760.23
2019-01-02T11:24:19.948Z,101756.70
2019-01-02T11:26:52.864Z,101756.98
2019-01-02T11:29:27.697Z,101768.48
2019-01-02T11:32:04.381Z,101770.55
2019-01-02T11:34:38.324Z,101764.59
2019-01-02T11:37:13.972Z,101767.75
2019-01-02T11:39:46.696Z,101754.17
2019-01-02T11:42:22.362Z,101760.62
2019-01-02T11:44:55.070Z,101755.98
2019-01-02T11:47:23.455Z,101762.42
2019-01-02T11:49:51.792Z,101754.20
2019-01-02T11:52:20.120Z,101755.42
2019-01-02T11:54:48.480Z,101735.81
2019-01-02T11:57:16.794Z,101753.59
2019-01-02T11:59:45.102Z,101746.10
2019-01-02T12:02:13.459Z,101746.66
2019-01-02T12:04:41.786Z,101739.03
2019-01-02T12:07:10.348Z,101748.19
2019-01-02T12:09:38.675Z,101745.13
2019-01-02T12:12:07.010Z,101744.77
2019-01-02T12:14:35.342Z,101744.59
2019-01-02T12:17:03.683Z,101744.38
2019-01-02T12:19:32.012Z,101744.52
2019-01-02T12:22:00.361Z,101752.77
2019-01-02T12:24:28.685Z,101749.97
2019-01-02T12:26:57.004Z,101761.67
2019-01-02T12:29:25.340Z,101756.57
2019-01-02T12:31:53.684Z,101768.91
2019-01-02T12:34:22.001Z,101761.09
2019-01-02T12:36:50.417Z,101759.49
2019-01-02T12:39:18.730Z,101759.14
2019-01-02T12:41:47.055Z,101761.93
2019-01-02T12:44:15.373Z,101752.22
2019-01-02T12:46:43.734Z,101762.53
2019-01-02T12:49:12.105Z,101752.02
2019-01-02T12:51:40.446Z,101767.06
2019-01-02T12:54:09.090Z,101769.20
2019-01-02T12:56:38.942Z,101763.30
2019-01-02T12:59:07.440Z,101764.08
2019-01-02T13:01:40.571Z,101767.48
2019-01-02T13:04:15.341Z,101781.67
2019-01-02T13:06:52.067Z,101796.42
2019-01-02T13:09:24.795Z,101791.95
2019-01-02T13:11:58.570Z,101799.92
2019-01-02T13:14:33.246Z,101805.27
2019-01-02T13:17:04.229Z,101806.45
2019-01-02T13:19:37.953Z,101816.14
2019-01-02T13:22:10.622Z,101814.69
2019-01-02T13:24:44.662Z,101811.05
2019-01-02T13:27:17.722Z,101805.11
2019-01-02T13:29:49.771Z,101817.70
2019-01-02T13:32:22.403Z,101808.48
2019-01-02T13:34:53.372Z,101815.03
2019-01-02T13:37:27.480Z,101809.84
2019-01-02T13:40:00.210Z,101810.09
2019-01-02T13:42:33.193Z,101816.13
2019-01-02T13:45:05.029Z,101818.68
2019-01-02T13:47:35.676Z,101813.84
2019-01-02T13:50:09.739Z,101827.98
2019-01-02T13:52:38.089Z,101818.20
2019-01-02T13:55:08.833Z,101820.13
2019-01-02T13:57:37.142Z,101823.86
2019-01-02T14:00:08.838Z,101827.73
2019-01-02T14:02:37.126Z,101824.01
2019-01-02T14:05:10.485Z,101824.84
2019-01-02T14:07:38.796Z,101822.42
2019-01-02T14:10:07.397Z,101827.88
2019-01-02T14:12:35.762Z,101833.91
2019-01-02T14:15:04.815Z,101835.98
2019-01-02T14:17:33.174Z,101838.88
2019-01-02T14:20:01.576Z,101851.55
2019-01-02T14:22:29.866Z,101857.22
2019-01-02T14:24:58.203Z,101846.83
2019-01-02T14:27:26.528Z,101847.19
2019-01-02T14:29:54.868Z,101850.33
2019-01-02T14:32:23.202Z,101859.64
2019-01-02T14:34:52.312Z,101866.63
2019-01-02T14:37:20.623Z,101870.62
2019-01-02T14:39:48.953Z,101866.39
2019-01-02T14:42:17.374Z,101875.30
2019-01-02T14:44:45.699Z,101879.28
2019-01-02T14:47:14.020Z,101879.53
2019-01-02T14:49:42.369Z,101878.89
2019-01-02T14:52:10.681Z,101880.94
2019-01-02T14:54:39.040Z,101885.53
2019-01-02T14:57:07.798Z,101881.86
2019-01-02T14:59:36.160Z,101879.03
2019-01-02T15:02:04.489Z,101896.14
2019-01-02T15:04:32.824Z,101889.12
2019-01-02T15:07:01.183Z,101899.69
2019-01-02T15:09:29.561Z,101897.88
2019-01-02T15:11:57.921Z,101902.19
2019-01-02T15:14:26.284Z,101898.41
2019-01-02T15:16:54.616Z,101906.46
2019-01-02T15:19:22.949Z,101905.00
2019-01-02T15:21:51.315Z,101906.44
2019-01-02T15:24:19.658Z,101907.29
2019-01-02T15:26:47.992Z,101913.11
2019-01-02T15:29:16.299Z,101922.91
2019-01-02T15:31:44.657Z,101923.20
2019-01-02T15:34:13.034Z,101922.52
2019-01-02T15:36:41.374Z,101923.95
2019-01-02T15:39:09.756Z,101927.94
2019-01-02T15:41:38.094Z,101931.61
2019-01-02T15:44:06.589Z,101931.44
2019-01-02T15:46:34.927Z,101929.16
2019-01-02T15:49:03.349Z,101938.19
2019-01-02T15:51:31.948Z,101946.16
2019-01-02T15:54:00.331Z,101949.19
2019-01-02T15:56:28.773Z,101959.70
2019-01-02T15:58:57.085Z,101960.17
2019-01-02T16:01:25.424Z,101970.02
2019-01-02T16:03:53.902Z,101971.48
2019-01-02T16:06:22.247Z,101972.23
2019-01-02T16:08:50.725Z,101977.35
2019-01-02T16:11:19.182Z,101981.77
2019-01-02T16:13:47.492Z,101991.22
2019-01-02T16:16:15.834Z,101996.05
2019-01-02T16:18:44.168Z,101997.09
2019-01-02T16:21:12.488Z,101996.50
2019-01-02T16:23:40.833Z,102011.06
2019-01-02T16:26:09.168Z,102012.92
2019-01-02T16:28:37.500Z,102014.46
2019-01-02T16:31:05.830Z,102011.48
2019-01-02T16:33:34.178Z,102020.03
2019-01-02T16:36:02.492Z,102017.70
2019-01-02T16:38:30.841Z,102021.48
2019-01-02T16:40:59.183Z,102021.80
2019-01-02T16:43:27.749Z,102022.20
2019-01-02T16:45:56.050Z,102017.84
2019-01-02T16:48:24.410Z,102027.34
2019-01-02T16:50:52.727Z,102024.47
2019-01-02T16:53:21.073Z,102026.36
2019-01-02T16:55:49.392Z,102037.67
2019-01-02T16:58:17.725Z,102040.70
2019-01-02T17:00:46.057Z,102043.47
2019-01-02T17:03:14.815Z,102047.16
2019-01-02T17:05:43.122Z,102043.47
2019-01-02T17:08:11.871Z,102050.20
2019-01-02T17:10:40.224Z,102048.48
2019-01-02T17:13:08.555Z,102051.69
2019-01-02T17:15:36.911Z,102055.98
2019-01-02T17:18:05.238Z,102049.45
2019-01-02T17:20:33.589Z,102056.36
2019-01-02T17:23:01.933Z,102057.14
2019-01-02T17:25:30.280Z,102062.13
2019-01-02T17:27:58.628Z,102057.41
2019-01-02T17:30:26.941Z,102061.59
2019-01-02T17:32:55.277Z,102060.00
2019-01-02T17:35:23.590Z,102065.37
2019-01-02T17:37:51.932Z,102063.67
2019-01-02T17:40:20.252Z,102059.70
2019-01-02T17:42:48.619Z,102068.42
2019-01-02T17:45:17.383Z,102064.89
2019-01-02T17:47:46.282Z,102065.58
2019-01-02T17:50:15.006Z,102065.78
2019-01-02T17:52:43.321Z,102068.42
2019-01-02T17:55:11.654Z,102076.38
2019-01-02T17:57:39.974Z,102088.41
2019-01-02T18:00:10.627Z,102088.98
2019-01-02T18:02:38.968Z,102093.70
2019-01-02T18:05:07.440Z,102093.63
2019-01-02T18:07:35.774Z,102100.53
2019-01-02T18:10:05.164Z,102103.66
2019-01-02T18:12:33.499Z,102105.16
2019-01-02T18:15:01.823Z,102106.28
2019-01-02T18:17:30.357Z,102102.98
2019-01-02T18:19:58.680Z,102107.80
2019-01-02T18:22:27.015Z,102114.05
2019-01-02T18:24:55.390Z,102112.73
2019-01-02T18:27:23.749Z,102108.77
2019-01-02T18:29:52.501Z,102107.98
2019-01-02T18:32:20.824Z,102118.22
2019-01-02T18:34:49.178Z,102119.34
2019-01-02T18:37:17.502Z,102126.09
2019-01-02T18:39:45.866Z,102130.44
2019-01-02T18:42:14.872Z,102136.00
2019-01-02T18:44:43.228Z,102140.72
2019-01-02T18:47:11.579Z,102145.47
2019-01-02T18:49:39.912Z,102139.52
2019-01-02T18:52:08.230Z,102147.34
2019-01-02T18:54:36.665Z,102144.30
2019-01-02T18:57:04.974Z,102150.75
2019-01-02T18:59:33.322Z,102155.28
2019-01-02T19:02:01.927Z,102152.99
2019-01-02T19:04:30.265Z,102159.61
2019-01-02T19:06:58.579Z,102158.93
2019-01-02T19:09:27.890Z,102163.41
2019-01-02T19:11:56.236Z,102159.23
2019-01-02T19:14:24.736Z,102165.48
2019-01-02T19:16:53.090Z,102163.22
2019-01-02T19:19:21.475Z,102168.23
2019-01-02T19:21:49.817Z,102173.72
2019-01-02T19:24:18.222Z,102173.12
2019-01-02T19:26:46.545Z,102175.70
2019-01-02T19:29:15.661Z,102178.60
2019-01-02T19:31:44.013Z,102170.19
2019-01-02T19:34:12.701Z,102175.67
2019-01-02T19:36:41.120Z,102176.40
2019-01-02T19:39:09.489Z,102173.47
2019-01-02T19:41:37.837Z,102174.79
2019-01-02T19:44:07.176Z,102182.64
2019-01-02T19:46:35.550Z,102186.42
2019-01-02T19:49:04.004Z,102182.26
2019-01-02T19:51:32.354Z,102188.31
2019-01-02T19:54:31.505Z,102188.09
2019-01-02T19:56:59.917Z,102187.99
2019-01-02T19:59:28.245Z,102192.53
2019-01-02T20:01:56.589Z,102197.62
2019-01-02T20:04:24.905Z,102193.72
2019-01-02T20:06:53.269Z,102195.51
2019-01-02T20:09:21.641Z,102200.28
2019-01-02T20:11:49.985Z,102183.32
2019-01-02T20:14:18.337Z,102190.69
2019-01-02T20:16:46.783Z,102191.16
2019-01-02T20:19:15.538Z,102187.84
2019-01-02T20:21:43.934Z,102185.63
2019-01-02T20:24:12.334Z,102184.97
2019-01-02T20:26:40.656Z,102190.17
2019-01-02T20:29:09.020Z,102187.43
2019-01-02T20:31:37.364Z,102192.63
2019-01-02T20:34:06.099Z,102190.73
2019-01-02T20:36:34.417Z,102186.53
2019-01-02T20:39:03.247Z,102186.44
2019-01-02T20:41:31.632Z,102177.88
2019-01-02T20:43:59.976Z,102189.65
2019-01-02T20:46:28.303Z,102185.25
2019-01-02T20:48:56.632Z,102179.96
2019-01-02T20:51:24.926Z,102183.22
2019-01-02T20:53:54.030Z,102176.17
2019-01-02T20:56:22.357Z,102173.22
2019-01-02T20:58:50.710Z,102179.81
2019-01-02T21:01:20.056Z,102176.76
2019-01-02T21:03:48.389Z,102174.30
2019-01-02T21:06:17.032Z,102181.28
2019-01-02T21:08:45.346Z,102172.86
2019-01-02T21:11:13.931Z,102176.56
2019-01-02T21:13:42.283Z,102182.98
2019-01-02T21:16:10.630Z,102177.92
2019-01-02T21:18:38.965Z,102179.11
2019-01-02T21:21:07.316Z,102173.39
2019-01-02T21:23:35.666Z,102180.01
2019-01-02T21:26:03.969Z,102180.01
2019-01-02T21:28:32.573Z,102179.42
2019-01-02T21:31:00.906Z,102183.14
2019-01-02T21:33:29.287Z,102180.49
2019-01-02T21:35:57.597Z,102185.87
2019-01-02T21:38:25.959Z,102183.05
2019-01-02T21:40:54.290Z,102187.02
2019-01-02T21:43:22.633Z,102184.84
2019-01-02T21:45:51.081Z,102182.29
2019-01-02T21:48:19.446Z,102184.57
2019-01-02T21:50:47.767Z,102176.35
2019-01-02T21:53:16.452Z,102177.18
2019-01-02T21:55:44.853Z,102180.91
2019-01-02T21:58:13.397Z,102180.53
2019-01-02T22:00:41.782Z,102185.05
2019-01-02T22:03:10.126Z,102180.77
2019-01-02T22:05:38.450Z,102185.64
2019-01-02T22:08:06.784Z,102186.58
2019-01-02T22:10:35.129Z,102182.11
2019-01-02T22:13:03.448Z,102180.41
2019-01-02T22:15:31.809Z,102179.23
2019-01-02T22:18:00.175Z,102191.84
2019-01-02T22:20:28.507Z,102187.52
2019-01-02T22:22:57.096Z,102189.60
2019-01-02T22:25:25.409Z,102194.51
2019-01-02T22:27:53.765Z,102189.08
2019-01-02T22:30:22.132Z,102194.62
2019-01-02T22:32:50.457Z,102197.70
2019-01-02T22:35:18.820Z,102199.77
2019-01-02T22:37:47.261Z,102210.52
2019-01-02T22:40:16.262Z,102206.55
2019-01-02T22:42:44.573Z,102209.98
2019-01-02T22:45:13.505Z,102204.79
2019-01-02T22:47:41.806Z,102208.46
2019-01-02T22:50:10.282Z,102222.02
2019-01-02T22:52:39.040Z,102215.41
2019-01-02T22:55:07.845Z,102222.33
2019-01-02T22:57:36.626Z,102223.38
2019-01-02T23:00:10.208Z,102221.45
2019-01-02T23:02:40.928Z,102223.58
2019-01-02T23:05:13.380Z,102225.41
2019-01-02T23:07:45.114Z,102226.75
2019-01-02T23:10:18.897Z,102230.25
2019-01-02T23:12:48.893Z,102229.31
2019-01-02T23:15:21.207Z,102238.86
2019-01-02T23:17:53.385Z,102239.19
2019-01-02T23:20:25.349Z,102246.92
2019-01-02T23:22:55.600Z,102247.56
2019-01-02T23:25:26.583Z,102249.53
2019-01-02T23:27:58.630Z,102250.67
2019-01-02T23:30:31.179Z,102249.73
2019-01-02T23:33:02.331Z,102258.52
2019-01-02T23:35:33.342Z,102258.69
2019-01-02T23:38:05.426Z,102262.02
2019-01-02T23:40:37.410Z,102268.95
2019-01-02T23:43:08.544Z,102270.80
2019-01-02T23:45:39.552Z,102269.09
2019-01-02T23:48:10.512Z,102265.80
2019-01-02T23:50:41.343Z,102268.62
2019-01-02T23:53:13.135Z,102272.45
2019-01-02T23:55:44.365Z,102277.78
2019-01-02T23:58:15.892Z,102268.27
